Time;durP1;ratioP1;P1;durP2;ratioP2;P2;SDS_P1;SDS_P2;PMS_P1;PMS_P2;Temp;Humidity;BMP_temperature;BMP_pressure;BME280_temperature;BME280_humidity;BME280_pressure;Samples;Min_cycle;Max_cycle;Signal;HPM_P1;HPM_P2
2022/06/26 00:02:03;;;;;;;;;;;;;;;;;;4996909;28;19961;-79
2022/06/26 00:04:29;;;;;;;;;;;;;;;;;;4996986;28;19926;-79
2022/06/26 00:06:59;;;;;;;;;;;;;;;;;;4997078;28;19972;-79
2022/06/26 00:09:26;;;;;;;;;;;;;;;;;;4996947;28;20292;-78
2022/06/26 00:11:52;;;;;;;;;;;;;;;;;;4994655;28;19973;-78
2022/06/26 00:14:19;;;;;;;;;;;;;;;;;;4996976;28;19933;-78
2022/06/26 00:16:46;;;;;;;;;;;;;;;;;;4994099;28;19926;-79
2022/06/26 00:19:12;;;;;;;;;;;;;;;;;;4993978;28;19996;-77
2022/06/26 00:21:38;;;;;;;;;;;;;;;;;;4993825;28;20013;-78
2022/06/26 00:24:07;;;;;;;;;;;;;;;;;;4996625;28;19988;-79
2022/06/26 00:26:33;;;;;;;;;;;;;;;;;;4997518;28;20024;-78
2022/06/26 00:28:59;;;;;;;;;;;;;;;;;;4995998;28;19961;-79
2022/06/26 00:31:26;;;;;;;;;;;;;;;;;;4995373;28;19965;-79
2022/06/26 00:33:52;;;;;;;;;;;;;;;;;;4995237;28;19926;-80
2022/06/26 00:36:19;;;;;;;;;;;;;;;;;;4995084;28;19926;-79
2022/06/26 00:38:48;;;;;;;;;;;;;;;;;;4995053;28;19926;-79
2022/06/26 00:41:16;;;;;;;;;;;;;;;;;;4995142;28;20008;-79
2022/06/26 00:43:43;;;;;;;;;;;;;;;;;;4995503;28;20289;-78
2022/06/26 00:46:09;;;;;;;;;;;;;;;;;;4995687;28;19930;-80
2022/06/26 00:48:36;;;;;;;;;;;;;;;;;;4998258;28;20384;-79
2022/06/26 00:51:02;;;;;;;;;;;;;;;;;;4998684;28;19932;-78
2022/06/26 00:53:29;;;;;;;;;;;;;;;;;;4998225;28;19973;-79
2022/06/26 00:55:55;;;;;;;;;;;;;;;;;;4998088;28;20381;-79
2022/06/26 00:58:23;;;;;;;;;;;;;;;;;;4998005;28;20017;-79
2022/06/26 01:00:50;;;;;;;;;;;;;;;;;;5016972;28;19972;-79
2022/06/26 01:03:18;;;;;;;;;;;;;;;;;;5015406;28;20463;-79
2022/06/26 01:05:45;;;;;;;;;;;;;;;;;;5016825;28;19925;-77
2022/06/26 01:08:11;;;;;;;;;;;;;;;;;;5012955;28;19926;-79
2022/06/26 01:10:38;;;;;;;;;;;;;;;;;;5012299;28;20020;-79
2022/06/26 01:13:06;;;;;;;;;;;;;;;;;;5012756;28;19925;-79
2022/06/26 01:15:34;;;;;;;;;;;;;;;;;;5012789;28;19926;-77
2022/06/26 01:18:01;;;;;;;;;;;;;;;;;;5012673;28;20432;-78
2022/06/26 01:20:27;;;;;;;;;;;;;;;;;;5012567;28;19925;-78
2022/06/26 01:22:59;;;;;;;;;;;;;;;;;;5012974;28;19976;-78
2022/06/26 01:25:25;;;;;;;;;;;;;;;;;;5014090;28;19956;-78
2022/06/26 01:27:52;;;;;;;;;;;;;;;;;;5015691;28;20284;-79
2022/06/26 01:30:18;;;;;;;;;;;;;;;;;;5016107;28;19972;-78
2022/06/26 01:32:45;;;;;;;;;;;;;;;;;;5016150;28;19925;-78
2022/06/26 01:35:11;;;;;;;;;;;;;;;;;;5013084;28;19929;-78
2022/06/26 01:37:38;;;;;;;;;;;;;;;;;;5012894;28;19937;-78
2022/06/26 01:40:07;;;;;;;;;;;;;;;;;;5013816;28;19925;-79
2022/06/26 01:42:33;;;;;;;;;;;;;;;;;;5013580;28;20340;-78
2022/06/26 01:45:00;;;;;;;;;;;;;;;;;;5016740;28;20467;-80
2022/06/26 01:47:26;;;;;;;;;;;;;;;;;;5022119;28;20548;-80
2022/06/26 01:49:52;;;;;;;;;;;;;;;;;;5021619;28;19969;-79
2022/06/26 01:52:19;;;;;;;;;;;;;;;;;;5015824;28;20392;-78
2022/06/26 01:54:45;;;;;;;;;;;;;;;;;;5012732;28;20025;-78
2022/06/26 01:57:13;;;;;;;;;;;;;;;;;;5013490;28;19992;-78
2022/06/26 01:59:40;;;;;;;;;;;;;;;;;;5003095;28;19926;-78
2022/06/26 02:02:06;;;;;;;;;;;;;;;;;;4992904;28;19965;-77
2022/06/26 02:04:33;;;;;;;;;;;;;;;;;;4992658;28;19972;-78
2022/06/26 02:06:59;;;;;;;;;;;;;;;;;;4992607;28;19968;-79
2022/06/26 02:14:55;;;;;;;;;;;;;;;;;;4993414;28;19969;-78
2022/06/26 02:17:21;;;;;;;;;;;;;;;;;;4995935;28;20377;-77
2022/06/26 02:19:47;;;;;;;;;;;;;;;;;;4995618;28;19965;-78
2022/06/26 02:22:14;;;;;;;;;;;;;;;;;;4995759;28;20013;-78
2022/06/26 02:24:41;;;;;;;;;;;;;;;;;;4996125;28;19984;-77
2022/06/26 02:27:08;;;;;;;;;;;;;;;;;;4997456;28;19973;-77
2022/06/26 02:29:34;;;;;;;;;;;;;;;;;;4996824;28;19973;-77
2022/06/26 02:32:02;;;;;;;;;;;;;;;;;;4995854;28;20333;-77
2022/06/26 02:34:28;;;;;;;;;;;;;;;;;;4998221;28;20412;-79
2022/06/26 02:36:55;;;;;;;;;;;;;;;;;;4999970;28;19993;-80
2022/06/26 02:39:21;;;;;;;;;;;;;;;;;;4999819;28;20342;-79
2022/06/26 02:41:48;;;;;;;;;;;;;;;;;;4999628;28;20357;-79
2022/06/26 02:44:16;;;;;;;;;;;;;;;;;;4999575;28;19995;-78
2022/06/26 02:46:43;;;;;;;;;;;;;;;;;;4998590;28;19933;-79
2022/06/26 02:49:11;;;;;;;;;;;;;;;;;;4998882;28;20036;-79
2022/06/26 02:51:37;;;;;;;;;;;;;;;;;;4999073;28;19973;-78
2022/06/26 02:54:04;;;;;;;;;;;;;;;;;;4998756;28;19926;-78
2022/06/26 02:56:30;;;;;;;;;;;;;;;;;;4996531;28;20596;-77
2022/06/26 02:58:57;;;;;;;;;;;;;;;;;;4998921;28;19997;-78
2022/06/26 03:01:23;;;;;;;;;;;;;;;;;;5014217;28;19965;-77
2022/06/26 03:03:50;;;;;;;;;;;;;;;;;;5014977;28;19980;-78
2022/06/26 03:06:18;;;;;;;;;;;;;;;;;;5015092;28;19976;-76
2022/06/26 03:08:44;;;;;;;;;;;;;;;;;;5015830;28;20008;-77
2022/06/26 03:11:11;;;;;;;;;;;;;;;;;;5016907;28;19931;-79
2022/06/26 03:13:37;;;;;;;;;;;;;;;;;;5018433;28;19979;-80
2022/06/26 03:16:04;;;;;;;;;;;;;;;;;;5016466;28;19945;-78
2022/06/26 03:18:30;;;;;;;;;;;;;;;;;;5014497;28;19965;-78
2022/06/26 03:20:57;;;;;;;;;;;;;;;;;;5014255;28;19925;-78
2022/06/26 03:24:01;;;;;;;;;;;;;;;;;;5014390;28;19987;-78
2022/06/26 03:26:12;;;;;;;;;;;;;;;;;;5015941;28;19932;-78
2022/06/26 03:28:39;;;;;;;;;;;;;;;;;;5017723;28;19969;-78
2022/06/26 03:31:05;;;;;;;;;;;;;;;;;;5016683;28;19961;-80
2022/06/26 03:33:32;;;;;;;;;;;;;;;;;;5017357;28;19995;-79
2022/06/26 03:35:58;;;;;;;;;;;;;;;;;;5016974;28;19957;-79
2022/06/26 03:38:26;;;;;;;;;;;;;;;;;;5016732;28;19932;-79
2022/06/26 03:40:52;;;;;;;;;;;;;;;;;;5016188;28;20386;-79
2022/06/26 03:43:19;;;;;;;;;;;;;;;;;;5016844;28;19968;-79
2022/06/26 03:45:45;;;;;;;;;;;;;;;;;;5013998;28;20013;-78
2022/06/26 03:48:12;;;;;;;;;;;;;;;;;;5014214;28;20012;-79
2022/06/26 03:50:38;;;;;;;;;;;;;;;;;;5013821;28;20020;-78
2022/06/26 03:53:05;;;;;;;;;;;;;;;;;;5015210;28;19969;-80
2022/06/26 03:55:33;;;;;;;;;;;;;;;;;;5018962;28;19933;-80
2022/06/26 03:57:59;;;;;;;;;;;;;;;;;;5018487;28;19961;-79
2022/06/26 04:00:26;;;;;;;;;;;;;;;;;;4999723;28;19926;-78
2022/06/26 04:02:52;;;;;;;;;;;;;;;;;;4994006;28;19961;-78
2022/06/26 04:05:18;;;;;;;;;;;;;;;;;;5011594;22;20024;-75
2022/06/26 04:07:45;;;;;;;;;;;;;;;;;;5033128;28;20020;-76
2022/06/26 04:10:12;;;;;;;;;;;;;;;;;;5032516;28;20433;-76
2022/06/26 04:12:40;;;;;;;;;;;;;;;;;;5033261;28;19975;-77
2022/06/26 04:15:07;;;;;;;;;;;;;;;;;;5032965;28;19971;-76
2022/06/26 04:17:33;;;;;;;;;;;;;;;;;;5033491;28;19925;-77
2022/06/26 04:20:00;;;;;;;;;;;;;;;;;;5032408;28;20016;-75
2022/06/26 04:22:27;;;;;;;;;;;;;;;;;;5033082;28;19961;-76
2022/06/26 04:24:53;;;;;;;;;;;;;;;;;;5033272;28;19929;-76
2022/06/26 04:27:19;;;;;;;;;;;;;;;;;;5033035;28;19925;-76
2022/06/26 04:29:47;;;;;;;;;;;;;;;;;;5036728;28;19960;-75
2022/06/26 04:32:14;;;;;;;;;;;;;;;;;;5047047;28;19925;-75
2022/06/26 04:34:40;;;;;;;;;;;;;;;;;;5047523;28;19925;-77
2022/06/26 04:37:07;;;;;;;;;;;;;;;;;;5037007;28;19971;-78
2022/06/26 04:39:33;;;;;;;;;;;;;;;;;;5032386;28;20019;-77
2022/06/26 04:42:00;;;;;;;;;;;;;;;;;;5032689;28;19972;-77
2022/06/26 04:44:27;;;;;;;;;;;;;;;;;;5032976;28;19971;-77
2022/06/26 04:46:55;;;;;;;;;;;;;;;;;;5033470;28;20012;-76
2022/06/26 04:49:21;;;;;;;;;;;;;;;;;;5032122;28;19956;-77
2022/06/26 04:51:48;;;;;;;;;;;;;;;;;;5032189;28;20407;-76
2022/06/26 04:54:14;;;;;;;;;;;;;;;;;;5021115;28;20397;-77
2022/06/26 04:56:40;;;;;;;;;;;;;;;;;;5012667;28;19969;-77
2022/06/26 04:59:07;;;;;;;;;;;;;;;;;;5013030;28;20412;-77
2022/06/26 05:01:33;;;;;;;;;;;;;;;;;;5015306;28;19997;-77
2022/06/26 05:04:01;;;;;;;;;;;;;;;;;;5015416;28;19925;-77
2022/06/26 05:06:28;;;;;;;;;;;;;;;;;;5012522;28;20371;-78
2022/06/26 05:08:54;;;;;;;;;;;;;;;;;;5014019;28;19925;-77
2022/06/26 05:11:21;;;;;;;;;;;;;;;;;;5013719;28;19964;-77
2022/06/26 05:13:47;;;;;;;;;;;;;;;;;;5013343;28;19957;-77
2022/06/26 05:16:14;;;;;;;;;;;;;;;;;;5013728;28;19957;-77
2022/06/26 05:18:40;;;;;;;;;;;;;;;;;;5012855;28;19961;-77
2022/06/26 05:21:08;;;;;;;;;;;;;;;;;;5012325;28;19968;-77
2022/06/26 05:23:35;;;;;;;;;;;;;;;;;;5013000;28;19964;-77
2022/06/26 05:26:01;;;;;;;;;;;;;;;;;;5012711;28;19975;-77
2022/06/26 05:28:28;;;;;;;;;;;;;;;;;;5012626;28;19926;-77
2022/06/26 05:30:54;;;;;;;;;;;;;;;;;;5012440;28;19957;-77
2022/06/26 05:33:21;;;;;;;;;;;;;;;;;;5012507;28;19926;-77
2022/06/26 05:35:47;;;;;;;;;;;;;;;;;;5012748;28;19925;-77
2022/06/26 05:38:15;;;;;;;;;;;;;;;;;;5012785;28;19925;-77
2022/06/26 05:40:41;;;;;;;;;;;;;;;;;;5012191;28;19926;-76
2022/06/26 05:43:08;;;;;;;;;;;;;;;;;;5012508;28;20016;-77
2022/06/26 05:45:34;;;;;;;;;;;;;;;;;;5013031;28;19925;-76
2022/06/26 05:48:01;;;;;;;;;;;;;;;;;;5012863;28;20089;-77
2022/06/26 05:50:27;;;;;;;;;;;;;;;;;;5014145;28;20019;-77
2022/06/26 05:52:54;;;;;;;;;;;;;;;;;;5015830;28;20017;-77
2022/06/26 05:55:22;;;;;;;;;;;;;;;;;;5015968;28;20348;-77
2022/06/26 05:57:48;;;;;;;;;;;;;;;;;;5015971;28;19965;-77
2022/06/26 06:00:15;;;;;;;;;;;;;;;;;;5015265;28;20013;-77
2022/06/26 06:02:42;;;;;;;;;;;;;;;;;;5015941;28;20008;-77
2022/06/26 06:05:09;;;;;;;;;;;;;;;;;;5015374;28;19997;-77
2022/06/26 06:07:36;;;;;;;;;;;;;;;;;;5015843;28;19934;-77
2022/06/26 06:10:03;;;;;;;;;;;;;;;;;;5013532;28;19929;-77
2022/06/26 06:12:30;;;;;;;;;;;;;;;;;;5016569;28;19926;-77
2022/06/26 06:14:57;;;;;;;;;;;;;;;;;;5017461;28;19975;-78
2022/06/26 06:17:40;;;;;;;;;;;;;;;;;;5016744;28;19969;-75
2022/06/26 06:20:08;;;;;;;;;;;;;;;;;;5013711;28;19926;-76
2022/06/26 06:22:36;;;;;;;;;;;;;;;;;;5015213;28;19960;-76
2022/06/26 06:25:02;;;;;;;;;;;;;;;;;;5012527;28;20402;-76
2022/06/26 06:27:30;;;;;;;;;;;;;;;;;;5014950;28;19925;-76
2022/06/26 06:29:57;;;;;;;;;;;;;;;;;;5014932;28;19956;-76
2022/06/26 06:32:23;;;;;;;;;;;;;;;;;;5015643;28;19983;-76
2022/06/26 06:34:50;;;;;;;;;;;;;;;;;;5015859;28;19926;-76
2022/06/26 06:37:16;;;;;;;;;;;;;;;;;;5015354;28;20025;-76
2022/06/26 06:39:43;;;;;;;;;;;;;;;;;;5014997;28;19964;-76
2022/06/26 06:42:10;;;;;;;;;;;;;;;;;;5015114;28;19972;-76
2022/06/26 06:44:37;;;;;;;;;;;;;;;;;;5015547;28;19968;-77
2022/06/26 06:47:04;;;;;;;;;;;;;;;;;;5015203;28;20011;-77
2022/06/26 06:49:31;;;;;;;;;;;;;;;;;;5014975;28;19930;-77
2022/06/26 06:51:57;;;;;;;;;;;;;;;;;;5015197;28;20013;-76
2022/06/26 06:54:24;;;;;;;;;;;;;;;;;;5015367;28;20016;-76
2022/06/26 06:56:50;;;;;;;;;;;;;;;;;;5015115;28;19926;-77
2022/06/26 06:59:17;;;;;;;;;;;;;;;;;;5014660;28;19961;-77
2022/06/26 07:01:45;;;;;;;;;;;;;;;;;;5014628;28;19929;-78
2022/06/26 07:04:12;;;;;;;;;;;;;;;;;;5015289;28;19980;-77
2022/06/26 07:06:38;;;;;;;;;;;;;;;;;;5014781;28;20428;-77
2022/06/26 07:09:05;;;;;;;;;;;;;;;;;;5015990;28;19933;-78
2022/06/26 07:11:32;;;;;;;;;;;;;;;;;;5015297;28;20272;-76
2022/06/26 07:13:58;;;;;;;;;;;;;;;;;;5014982;28;20024;-76
2022/06/26 07:16:25;;;;;;;;;;;;;;;;;;5014913;28;19965;-77
2022/06/26 07:18:53;;;;;;;;;;;;;;;;;;5014528;28;19930;-76
2022/06/26 07:21:19;;;;;;;;;;;;;;;;;;5014224;28;19926;-76
2022/06/26 07:23:46;;;;;;;;;;;;;;;;;;5014295;28;19983;-76
2022/06/26 07:26:12;;;;;;;;;;;;;;;;;;5014197;28;20563;-76
2022/06/26 07:28:39;;;;;;;;;;;;;;;;;;5014340;28;19965;-76
2022/06/26 07:31:05;;;;;;;;;;;;;;;;;;5014001;28;20396;-76
2022/06/26 07:36:18;;;;;;;;;;;;;;;;;;5014662;28;20454;-77
2022/06/26 07:38:44;;;;;;;;;;;;;;;;;;5014358;28;19979;-77
2022/06/26 07:41:10;;;;;;;;;;;;;;;;;;5014114;28;19969;-77
2022/06/26 07:43:37;;;;;;;;;;;;;;;;;;5014324;28;20016;-78
2022/06/26 07:46:04;;;;;;;;;;;;;;;;;;5014337;28;20036;-77
2022/06/26 07:48:31;;;;;;;;;;;;;;;;;;5016307;28;19930;-77
2022/06/26 07:50:57;;;;;;;;;;;;;;;;;;5015870;28;20011;-77
2022/06/26 07:53:25;;;;;;;;;;;;;;;;;;5014192;28;19925;-77
2022/06/26 07:55:52;;;;;;;;;;;;;;;;;;5013883;28;19968;-77
2022/06/26 07:58:18;;;;;;;;;;;;;;;;;;5014182;28;19973;-77
2022/06/26 08:00:45;;;;;;;;;;;;;;;;;;5013603;28;20012;-77
2022/06/26 08:03:13;;;;;;;;;;;;;;;;;;5013876;28;20060;-77
2022/06/26 08:05:44;;;;;;;;;;;;;;;;;;5013288;28;19988;-77
2022/06/26 08:08:10;;;;;;;;;;;;;;;;;;5014084;28;20012;-78
2022/06/26 08:10:38;;;;;;;;;;;;;;;;;;5013788;28;19980;-77
2022/06/26 08:13:05;;;;;;;;;;;;;;;;;;5012934;28;19930;-77
2022/06/26 08:15:31;;;;;;;;;;;;;;;;;;5013643;28;19926;-76
2022/06/26 08:17:58;;;;;;;;;;;;;;;;;;5013920;28;19983;-76
2022/06/26 08:20:25;;;;;;;;;;;;;;;;;;5013223;28;19976;-76
2022/06/26 08:22:52;;;;;;;;;;;;;;;;;;5013414;28;20327;-77
2022/06/26 08:25:18;;;;;;;;;;;;;;;;;;5013602;28;20384;-76
2022/06/26 08:27:46;;;;;;;;;;;;;;;;;;5013803;28;20007;-76
2022/06/26 08:30:13;;;;;;;;;;;;;;;;;;5013361;28;19988;-77
2022/06/26 08:32:39;;;;;;;;;;;;;;;;;;5013611;28;20377;-76
2022/06/26 08:35:06;;;;;;;;;;;;;;;;;;5012824;28;19926;-76
2022/06/26 08:37:33;;;;;;;;;;;;;;;;;;5013336;28;20019;-76
2022/06/26 08:39:59;;;;;;;;;;;;;;;;;;5013014;28;19925;-76
2022/06/26 08:42:26;;;;;;;;;;;;;;;;;;5013612;28;19925;-77
2022/06/26 08:44:57;;;;;;;;;;;;;;;;;;5013534;28;20387;-77
2022/06/26 08:47:24;;;;;;;;;;;;;;;;;;5014426;28;19925;-77
2022/06/26 08:49:52;;;;;;;;;;;;;;;;;;5013627;28;19973;-76
2022/06/26 08:52:19;;;;;;;;;;;;;;;;;;5013847;28;19925;-78
2022/06/26 08:54:46;;;;;;;;;;;;;;;;;;5013076;28;20269;-77
2022/06/26 08:57:13;;;;;;;;;;;;;;;;;;5013107;28;19929;-76
2022/06/26 08:59:40;;;;;;;;;;;;;;;;;;5012384;28;19929;-77
2022/06/26 09:02:08;;;;;;;;;;;;;;;;;;5013052;28;19964;-76
2022/06/26 09:04:36;;;;;;;;;;;;;;;;;;5013038;28;20008;-76
2022/06/26 09:07:03;;;;;;;;;;;;;;;;;;5012955;28;19933;-76
2022/06/26 09:09:32;;;;;;;;;;;;;;;;;;5012344;28;20305;-76
2022/06/26 09:12:00;;;;;;;;;;;;;;;;;;5013311;28;20377;-77
2022/06/26 09:14:26;;;;;;;;;;;;;;;;;;5012950;28;20371;-77
2022/06/26 09:16:53;;;;;;;;;;;;;;;;;;5013655;28;20311;-77
2022/06/26 09:19:24;;;;;;;;;;;;;;;;;;5012677;28;20348;-78
2022/06/26 09:21:51;;;;;;;;;;;;;;;;;;5012838;28;20386;-76
2022/06/26 09:24:19;;;;;;;;;;;;;;;;;;5014319;28;19925;-77
2022/06/26 09:26:46;;;;;;;;;;;;;;;;;;5017195;28;20474;-77
2022/06/26 09:29:14;;;;;;;;;;;;;;;;;;5017092;28;19976;-77
2022/06/26 09:31:41;;;;;;;;;;;;;;;;;;5017368;28;19929;-76
2022/06/26 09:34:08;;;;;;;;;;;;;;;;;;5016333;28;20450;-76
2022/06/26 09:36:36;;;;;;;;;;;;;;;;;;5017194;28;19988;-76
2022/06/26 09:39:06;;;;;;;;;;;;;;;;;;5016750;28;20016;-76
2022/06/26 09:41:33;;;;;;;;;;;;;;;;;;5016447;28;20375;-76
2022/06/26 09:44:00;;;;;;;;;;;;;;;;;;5016521;28;19939;-76
2022/06/26 09:46:30;;;;;;;;;;;;;;;;;;5016946;28;20028;-77
2022/06/26 09:48:58;;;;;;;;;;;;;;;;;;5016314;28;20367;-76
2022/06/26 09:51:25;;;;;;;;;;;;;;;;;;5016175;28;20400;-76
2022/06/26 09:53:55;;;;;;;;;;;;;;;;;;5016008;28;20384;-76
2022/06/26 09:56:22;;;;;;;;;;;;;;;;;;5016732;28;20023;-76
2022/06/26 09:58:51;;;;;;;;;;;;;;;;;;5016738;28;19925;-77
2022/06/26 10:06:50;;;;;;;;;;;;;;;;;;5016451;28;19932;-76
2022/06/26 10:09:18;;;;;;;;;;;;;;;;;;5015691;28;20451;-77
2022/06/26 10:11:45;;;;;;;;;;;;;;;;;;5017301;28;19977;-77
2022/06/26 10:14:15;;;;;;;;;;;;;;;;;;5016421;28;19925;-77
2022/06/26 10:16:51;;;;;;;;;;;;;;;;;;5016466;28;19932;-77
2022/06/26 10:19:23;;;;;;;;;;;;;;;;;;5017046;28;20028;-77
2022/06/26 10:21:50;;;;;;;;;;;;;;;;;;5040573;23;20012;-66
2022/06/26 10:24:18;;;;;;;;;;;;;;;;;;5039440;28;19929;-66
2022/06/26 10:26:52;;;;;;;;;;;;;;;;;;5039109;28;19929;-66
2022/06/26 10:29:19;;;;;;;;;;;;;;;;;;5039662;28;19971;-66
2022/06/26 10:31:47;;;;;;;;;;;;;;;;;;5040309;28;20016;-66
2022/06/26 10:34:15;;;;;;;;;;;;;;;;;;5040067;28;19925;-66
2022/06/26 10:36:41;;;;;;;;;;;;;;;;;;5039212;28;19925;-66
2022/06/26 10:39:08;;;;;;;;;;;;;;;;;;5039730;28;19941;-67
2022/06/26 10:44:29;;;;;;;;;;;;;;;;;;5040143;28;19932;-66
2022/06/26 10:46:58;;;;;;;;;;;;;;;;;;5039438;28;20283;-66
2022/06/26 10:49:24;;;;;;;;;;;;;;;;;;5039847;28;19925;-66
2022/06/26 10:51:51;;;;;;;;;;;;;;;;;;5038843;28;19925;-66
2022/06/26 10:54:19;;;;;;;;;;;;;;;;;;5038496;28;20298;-64
2022/06/26 10:56:47;;;;;;;;;;;;;;;;;;5037628;28;19975;-67
2022/06/26 10:59:17;;;;;;;;;;;;;;;;;;5041964;28;19993;-66
2022/06/26 11:01:44;;;;;;;;;;;;;;;;;;5056863;28;19942;-67
2022/06/26 11:04:10;;;;;;;;;;;;;;;;;;5056033;28;19928;-66
2022/06/26 11:06:39;;;;;;;;;;;;;;;;;;5055831;28;19928;-68
2022/06/26 11:09:06;;;;;;;;;;;;;;;;;;5056268;28;19929;-66
2022/06/26 11:11:32;;;;;;;;;;;;;;;;;;5054543;28;19925;-76
2022/06/26 11:14:01;;;;;;;;;;;;;;;;;;5054792;28;19925;-70
2022/06/26 11:16:29;;;;;;;;;;;;;;;;;;5055567;28;20430;-67
2022/06/26 11:18:56;;;;;;;;;;;;;;;;;;5056270;28;19932;-70
2022/06/26 11:21:22;;;;;;;;;;;;;;;;;;5056435;28;19925;-66
2022/06/26 11:23:51;;;;;;;;;;;;;;;;;;5054663;28;19947;-62
2022/06/26 11:26:19;;;;;;;;;;;;;;;;;;5055215;28;19931;-68
2022/06/26 11:28:46;;;;;;;;;;;;;;;;;;5055133;28;19978;-66
2022/06/26 11:31:21;;;;;;;;;;;;;;;;;;5055448;28;19925;-67
2022/06/26 11:33:48;;;;;;;;;;;;;;;;;;5055795;28;19925;-67
2022/06/26 11:36:15;;;;;;;;;;;;;;;;;;5055100;28;19928;-68
2022/06/26 11:38:47;;;;;;;;;;;;;;;;;;5054980;28;19925;-68
2022/06/26 11:41:14;;;;;;;;;;;;;;;;;;5054398;28;19932;-68
2022/06/26 11:43:45;;;;;;;;;;;;;;;;;;5055366;28;19940;-68
2022/06/26 11:46:12;;;;;;;;;;;;;;;;;;5055069;28;19980;-68
2022/06/26 11:48:40;;;;;;;;;;;;;;;;;;5054133;28;20279;-67
2022/06/26 11:51:07;;;;;;;;;;;;;;;;;;5054643;28;20332;-68
2022/06/26 11:53:34;;;;;;;;;;;;;;;;;;5055080;28;20443;-68
2022/06/26 11:56:02;;;;;;;;;;;;;;;;;;5054391;28;19970;-68
2022/06/26 11:58:29;;;;;;;;;;;;;;;;;;5054857;28;19929;-68
2022/06/26 12:01:06;;;;;;;;;;;;;;;;;;5014215;28;20342;-68
2022/06/26 12:03:33;;;;;;;;;;;;;;;;;;5014426;28;19925;-67
2022/06/26 12:06:02;;;;;;;;;;;;;;;;;;5014614;28;19925;-67
2022/06/26 12:08:30;;;;;;;;;;;;;;;;;;5014987;28;19977;-67
2022/06/26 12:10:56;;;;;;;;;;;;;;;;;;5013761;28;19932;-68
2022/06/26 12:13:24;;;;;;;;;;;;;;;;;;5015001;28;19933;-63
2022/06/26 12:15:50;;;;;;;;;;;;;;;;;;5014372;28;19929;-67
2022/06/26 12:18:17;;;;;;;;;;;;;;;;;;5015023;28;19987;-67
2022/06/26 12:20:43;;;;;;;;;;;;;;;;;;5014544;28;20274;-68
2022/06/26 12:23:12;;;;;;;;;;;;;;;;;;5014532;28;20373;-68
2022/06/26 12:25:39;;;;;;;;;;;;;;;;;;5014046;28;20017;-68
2022/06/26 12:28:06;;;;;;;;;;;;;;;;;;5015229;28;20413;-68
2022/06/26 12:30:34;;;;;;;;;;;;;;;;;;5014008;28;19950;-68
2022/06/26 12:33:02;;;;;;;;;;;;;;;;;;5014010;28;20009;-68
2022/06/26 12:35:30;;;;;;;;;;;;;;;;;;5013975;28;19980;-68
2022/06/26 12:37:57;;;;;;;;;;;;;;;;;;5014232;28;20020;-68
2022/06/26 12:40:25;;;;;;;;;;;;;;;;;;5014268;28;19926;-68
2022/06/26 12:42:52;;;;;;;;;;;;;;;;;;5014746;28;19988;-65
2022/06/26 12:45:19;;;;;;;;;;;;;;;;;;5014519;28;20406;-68
2022/06/26 12:47:46;;;;;;;;;;;;;;;;;;5016326;28;19948;-66
2022/06/26 12:50:13;;;;;;;;;;;;;;;;;;5015827;28;19973;-67
2022/06/26 12:52:39;;;;;;;;;;;;;;;;;;5015337;28;19926;-67
2022/06/26 12:55:08;;;;;;;;;;;;;;;;;;5022129;28;19956;-67
2022/06/26 12:57:36;;;;;;;;;;;;;;;;;;5040522;28;19925;-67
2022/06/26 13:00:03;;;;;;;;;;;;;;;;;;5043566;28;19967;-67
2022/06/26 13:02:30;;;;;;;;;;;;;;;;;;5044625;28;19940;-67
2022/06/26 13:04:56;;;;;;;;;;;;;;;;;;5045907;28;19978;-67
2022/06/26 13:07:23;;;;;;;;;;;;;;;;;;5045811;28;19925;-67
2022/06/26 13:09:49;;;;;;;;;;;;;;;;;;5044056;28;19929;-67
2022/06/26 13:12:16;;;;;;;;;;;;;;;;;;5041544;28;19925;-67
2022/06/26 13:14:44;;;;;;;;;;;;;;;;;;5042601;28;19991;-67
2022/06/26 13:17:11;;;;;;;;;;;;;;;;;;5042040;28;19972;-67
2022/06/26 13:19:38;;;;;;;;;;;;;;;;;;5041886;28;20382;-66
2022/06/26 13:22:05;;;;;;;;;;;;;;;;;;5043482;28;19932;-67
2022/06/26 13:24:31;;;;;;;;;;;;;;;;;;5044210;28;19925;-67
2022/06/26 13:26:59;;;;;;;;;;;;;;;;;;5043529;28;19979;-67
2022/06/26 13:29:25;;;;;;;;;;;;;;;;;;5042971;28;19979;-68
2022/06/26 13:31:53;;;;;;;;;;;;;;;;;;5042170;28;20393;-68
2022/06/26 13:34:20;;;;;;;;;;;;;;;;;;5039467;28;19929;-68
2022/06/26 13:36:47;;;;;;;;;;;;;;;;;;5042570;28;20007;-68
2022/06/26 13:39:13;;;;;;;;;;;;;;;;;;5035599;28;19925;-68
2022/06/26 13:41:40;;;;;;;;;;;;;;;;;;5033314;28;19991;-68
2022/06/26 13:44:07;;;;;;;;;;;;;;;;;;5033353;28;19976;-68
2022/06/26 13:46:33;;;;;;;;;;;;;;;;;;5033230;28;19984;-68
2022/06/26 13:49:01;;;;;;;;;;;;;;;;;;5034731;28;20398;-68
2022/06/26 13:51:28;;;;;;;;;;;;;;;;;;5034110;28;20341;-68
2022/06/26 13:53:54;;;;;;;;;;;;;;;;;;5034121;28;20374;-68
2022/06/26 13:56:21;;;;;;;;;;;;;;;;;;5034034;28;19979;-67
2022/06/26 13:58:47;;;;;;;;;;;;;;;;;;5036145;28;20123;-67
2022/06/26 14:01:14;;;;;;;;;;;;;;;;;;5054613;28;19925;-68
2022/06/26 14:03:41;;;;;;;;;;;;;;;;;;5055286;28;19936;-67
2022/06/26 14:06:09;;;;;;;;;;;;;;;;;;5055415;28;19929;-67
2022/06/26 14:08:36;;;;;;;;;;;;;;;;;;5055057;28;19931;-67
2022/06/26 14:11:02;;;;;;;;;;;;;;;;;;5055575;28;19946;-68
2022/06/26 14:13:29;;;;;;;;;;;;;;;;;;5058414;28;19925;-69
2022/06/26 14:15:56;;;;;;;;;;;;;;;;;;5059787;28;19970;-68
2022/06/26 14:18:23;;;;;;;;;;;;;;;;;;5058303;28;20324;-71
2022/06/26 14:20:49;;;;;;;;;;;;;;;;;;5057815;28;19925;-68
2022/06/26 14:26:03;;;;;;;;;;;;;;;;;;5058428;28;20296;-69
2022/06/26 14:28:30;;;;;;;;;;;;;;;;;;5058311;28;20335;-69
2022/06/26 14:30:57;;;;;;;;;;;;;;;;;;5057223;28;19936;-68
2022/06/26 14:33:24;;;;;;;;;;;;;;;;;;5057548;28;19924;-68
2022/06/26 14:35:51;;;;;;;;;;;;;;;;;;5058127;28;20297;-68
2022/06/26 14:38:19;;;;;;;;;;;;;;;;;;5056498;28;19974;-69
2022/06/26 14:40:46;;;;;;;;;;;;;;;;;;5056637;28;20378;-69
2022/06/26 14:43:12;;;;;;;;;;;;;;;;;;5056377;28;19943;-69
2022/06/26 14:45:39;;;;;;;;;;;;;;;;;;5055851;28;19925;-68
2022/06/26 14:48:06;;;;;;;;;;;;;;;;;;5056790;28;19928;-67
2022/06/26 14:50:33;;;;;;;;;;;;;;;;;;5055359;28;19969;-68
2022/06/26 14:53:00;;;;;;;;;;;;;;;;;;5055617;28;19982;-68
2022/06/26 14:55:28;;;;;;;;;;;;;;;;;;5056269;28;20023;-69
2022/06/26 14:57:54;;;;;;;;;;;;;;;;;;5056161;28;20072;-68
2022/06/26 15:00:21;;;;;;;;;;;;;;;;;;5040342;28;19968;-69
2022/06/26 15:02:48;;;;;;;;;;;;;;;;;;5038324;28;19929;-64
2022/06/26 15:05:14;;;;;;;;;;;;;;;;;;5036415;28;20001;-68
2022/06/26 15:07:41;;;;;;;;;;;;;;;;;;5036934;28;19929;-68
2022/06/26 15:10:09;;;;;;;;;;;;;;;;;;5039075;28;19925;-70
2022/06/26 15:12:37;;;;;;;;;;;;;;;;;;5036613;28;19925;-70
2022/06/26 15:15:04;;;;;;;;;;;;;;;;;;5035696;28;19925;-70
2022/06/26 15:17:30;;;;;;;;;;;;;;;;;;5035639;28;19929;-69
2022/06/26 15:19:57;;;;;;;;;;;;;;;;;;5035743;28;19979;-68
2022/06/26 15:22:23;;;;;;;;;;;;;;;;;;5035156;28;20362;-69
2022/06/26 15:24:50;;;;;;;;;;;;;;;;;;5035542;28;19932;-69
2022/06/26 15:27:16;;;;;;;;;;;;;;;;;;5035484;28;19926;-69
2022/06/26 15:29:45;;;;;;;;;;;;;;;;;;5035756;28;20203;-70
2022/06/26 15:32:13;;;;;;;;;;;;;;;;;;5035321;28;19979;-68
2022/06/26 15:34:41;;;;;;;;;;;;;;;;;;5035808;28;20317;-69
2022/06/26 15:37:07;;;;;;;;;;;;;;;;;;5036480;28;20020;-69
2022/06/26 15:39:34;;;;;;;;;;;;;;;;;;5035483;28;20410;-70
2022/06/26 15:42:00;;;;;;;;;;;;;;;;;;5036236;28;19940;-69
2022/06/26 15:44:27;;;;;;;;;;;;;;;;;;5036574;28;19932;-68
2022/06/26 15:46:55;;;;;;;;;;;;;;;;;;5035942;28;20150;-69
2022/06/26 15:49:21;;;;;;;;;;;;;;;;;;5035544;28;19932;-69
2022/06/26 15:51:48;;;;;;;;;;;;;;;;;;5035777;28;19925;-69
2022/06/26 15:54:15;;;;;;;;;;;;;;;;;;5035754;28;19971;-68
2022/06/26 15:56:41;;;;;;;;;;;;;;;;;;5034443;28;19947;-67
2022/06/26 15:59:08;;;;;;;;;;;;;;;;;;5034743;28;19925;-67
2022/06/26 16:01:35;;;;;;;;;;;;;;;;;;5034025;28;19925;-68
2022/06/26 16:04:03;;;;;;;;;;;;;;;;;;5034110;28;19979;-68
2022/06/26 16:06:30;;;;;;;;;;;;;;;;;;5033652;28;19925;-67
2022/06/26 16:08:57;;;;;;;;;;;;;;;;;;5033430;28;20011;-67
2022/06/26 16:11:23;;;;;;;;;;;;;;;;;;5033317;28;19925;-68
2022/06/26 16:13:50;;;;;;;;;;;;;;;;;;5033356;28;20386;-66
2022/06/26 16:16:16;;;;;;;;;;;;;;;;;;5033016;28;19980;-68
2022/06/26 16:18:43;;;;;;;;;;;;;;;;;;5033118;28;20386;-69
2022/06/26 16:21:11;;;;;;;;;;;;;;;;;;5032664;28;19975;-67
2022/06/26 16:26:24;;;;;;;;;;;;;;;;;;5032413;28;20302;-75
2022/06/26 16:28:51;;;;;;;;;;;;;;;;;;5034187;28;19925;-76
2022/06/26 16:31:18;;;;;;;;;;;;;;;;;;5033320;28;19926;-75
2022/06/26 16:33:44;;;;;;;;;;;;;;;;;;5031378;28;19976;-76
2022/06/26 16:36:12;;;;;;;;;;;;;;;;;;5032350;28;19931;-76
2022/06/26 16:38:39;;;;;;;;;;;;;;;;;;5032780;28;19925;-76
2022/06/26 16:41:05;;;;;;;;;;;;;;;;;;5032594;28;20377;-76
2022/06/26 16:43:31;;;;;;;;;;;;;;;;;;5032280;28;19925;-76
2022/06/26 16:45:58;;;;;;;;;;;;;;;;;;5032609;28;19925;-76
2022/06/26 16:48:24;;;;;;;;;;;;;;;;;;5032425;28;20011;-76
2022/06/26 16:50:51;;;;;;;;;;;;;;;;;;5032465;28;20331;-76
2022/06/26 16:53:19;;;;;;;;;;;;;;;;;;5032508;28;19931;-75
2022/06/26 16:55:45;;;;;;;;;;;;;;;;;;5032648;28;19936;-75
2022/06/26 16:58:12;;;;;;;;;;;;;;;;;;5032497;28;20020;-76
2022/06/26 17:00:38;;;;;;;;;;;;;;;;;;5014752;28;20009;-74
2022/06/26 17:03:05;;;;;;;;;;;;;;;;;;5012446;28;20029;-74
2022/06/26 17:05:31;;;;;;;;;;;;;;;;;;5012601;28;20376;-75
2022/06/26 17:07:58;;;;;;;;;;;;;;;;;;5012709;28;20016;-74